createdAt,value
2023-02-18T00:01:12.940Z,73.60
2023-02-18T00:03:41.053Z,74.30
2023-02-18T00:06:12.942Z,73.30
2023-02-18T00:08:40.294Z,75.20
2023-02-18T00:11:07.842Z,73.30
2023-02-18T00:13:34.767Z,73.80
2023-02-18T00:16:11.216Z,73.20
2023-02-18T00:18:39.338Z,75.30
2023-02-18T00:21:07.677Z,74.70
2023-02-18T00:23:34.605Z,74.50
2023-02-18T00:26:06.907Z,73.50
2023-02-18T00:28:34.196Z,75.00
2023-02-18T00:31:10.376Z,73.60
2023-02-18T00:33:37.294Z,74.80
2023-02-18T00:36:13.690Z,73.70
2023-02-18T00:38:43.572Z,75.80
2023-02-18T00:41:11.259Z,73.70
2023-02-18T00:43:38.048Z,73.70
2023-02-18T00:46:05.077Z,73.90
2023-02-18T00:48:32.394Z,74.40
2023-02-18T00:51:00.747Z,74.30
2023-02-18T00:53:29.478Z,74.10
2023-02-18T00:55:57.359Z,75.00
2023-02-18T00:58:24.412Z,74.50
2023-02-18T01:00:51.731Z,74.60
2023-02-18T01:03:18.486Z,74.70
2023-02-18T01:05:45.323Z,74.20
2023-02-18T01:08:12.566Z,74.30
2023-02-18T01:10:44.817Z,75.00
2023-02-18T01:13:12.531Z,76.10
2023-02-18T01:15:40.784Z,74.90
2023-02-18T01:18:08.400Z,75.30
2023-02-18T01:20:36.323Z,75.20
2023-02-18T01:23:03.978Z,75.00
2023-02-18T01:25:30.930Z,74.90
2023-02-18T01:27:57.838Z,74.90
2023-02-18T01:30:25.139Z,74.80
2023-02-18T01:32:51.931Z,75.60
2023-02-18T01:35:20.356Z,75.10
2023-02-18T01:37:48.242Z,76.50
2023-02-18T01:40:18.980Z,75.90
2023-02-18T01:42:46.504Z,76.50
2023-02-18T01:45:35.202Z,75.90
2023-02-18T01:48:10.888Z,77.30
2023-02-18T01:50:43.663Z,76.80
2023-02-18T01:53:11.919Z,77.30
2023-02-18T01:55:39.222Z,75.40
2023-02-18T01:58:06.467Z,75.60
2023-02-18T02:00:33.274Z,75.50
2023-02-18T02:02:59.965Z,75.60
2023-02-18T02:05:31.947Z,75.60
2023-02-18T02:07:59.904Z,77.20
2023-02-18T02:10:54.520Z,76.10
2023-02-18T02:13:46.531Z,77.40
2023-02-18T02:16:29.959Z,77.10
2023-02-18T02:19:22.420Z,77.00
2023-02-18T02:22:04.186Z,77.50
2023-02-18T02:24:50.323Z,77.10
2023-02-18T02:27:26.274Z,77.50
2023-02-18T02:30:25.192Z,77.80
2023-02-18T02:33:25.859Z,77.60
2023-02-18T02:36:16.845Z,77.80
2023-02-18T02:38:52.483Z,77.60
2023-02-18T02:41:26.643Z,78.20
2023-02-18T02:44:41.123Z,75.80
2023-02-18T02:47:18.346Z,77.50
2023-02-18T02:49:50.868Z,77.00
2023-02-18T02:52:30.653Z,77.50
2023-02-18T02:54:57.473Z,77.70
2023-02-18T02:57:25.004Z,75.70
2023-02-18T03:00:05.805Z,75.80
2023-02-18T03:03:03.547Z,77.20
2023-02-18T03:05:50.658Z,77.90
2023-02-18T03:08:36.728Z,77.80
2023-02-18T03:11:12.859Z,77.80
2023-02-18T03:14:10.249Z,78.30
2023-02-18T03:17:27.924Z,78.20
2023-02-18T03:20:13.408Z,78.70
2023-02-18T03:22:45.604Z,78.50
2023-02-18T03:25:13.655Z,78.20
2023-02-18T03:28:09.617Z,77.50
2023-02-18T03:30:48.018Z,78.10
2023-02-18T03:33:28.381Z,78.70
2023-02-18T03:35:56.852Z,78.30
2023-02-18T03:38:30.172Z,77.90
2023-02-18T03:40:57.729Z,78.70
2023-02-18T03:43:24.782Z,77.40
2023-02-18T03:45:52.224Z,76.80
2023-02-18T03:48:19.427Z,77.60
2023-02-18T03:50:46.215Z,76.80
2023-02-18T03:53:13.356Z,76.50
2023-02-18T03:55:40.462Z,76.60
2023-02-18T03:58:07.166Z,77.60
2023-02-18T04:00:33.915Z,76.70
2023-02-18T04:03:00.707Z,76.70
2023-02-18T04:05:27.462Z,77.80
2023-02-18T04:07:54.226Z,76.80
2023-02-18T04:10:22.657Z,76.80
2023-02-18T04:12:49.350Z,77.00
2023-02-18T04:15:16.105Z,77.00
2023-02-18T04:17:42.858Z,77.10
2023-02-18T04:20:10.173Z,76.90
2023-02-18T04:22:36.917Z,77.30
2023-02-18T04:25:03.787Z,77.00
2023-02-18T04:27:30.626Z,76.90
2023-02-18T04:29:57.674Z,76.90
2023-02-18T04:32:24.411Z,76.80
2023-02-18T04:34:51.156Z,77.00
2023-02-18T04:37:17.900Z,77.10
2023-02-18T04:39:44.647Z,77.00
2023-02-18T04:42:11.404Z,77.00
2023-02-18T04:44:38.229Z,77.00
2023-02-18T04:47:06.871Z,77.10
2023-02-18T04:49:33.957Z,78.30
2023-02-18T04:52:00.792Z,77.30
2023-02-18T04:54:27.616Z,77.20
2023-02-18T04:56:54.356Z,77.20
2023-02-18T04:59:21.123Z,77.20
2023-02-18T05:01:47.842Z,77.30
2023-02-18T05:04:14.709Z,77.20
2023-02-18T05:06:43.046Z,77.30
2023-02-18T05:09:10.708Z,77.40
2023-02-18T05:11:37.877Z,78.20
2023-02-18T05:14:04.642Z,77.70
2023-02-18T05:16:31.500Z,77.70
2023-02-18T05:18:58.296Z,77.60
2023-02-18T05:21:25.034Z,77.60
2023-02-18T05:23:51.709Z,78.20
2023-02-18T05:26:18.561Z,77.50
2023-02-18T05:28:45.311Z,77.50
2023-02-18T05:31:12.170Z,77.70
2023-02-18T05:33:38.944Z,77.80
2023-02-18T05:36:06.120Z,77.60
2023-02-18T05:38:32.995Z,77.90
2023-02-18T05:40:59.810Z,77.60
2023-02-18T05:43:26.605Z,78.50
2023-02-18T05:45:53.395Z,77.80
2023-02-18T05:48:20.358Z,77.90
2023-02-18T05:50:47.369Z,77.90
2023-02-18T05:53:15.147Z,78.80
2023-02-18T05:55:43.372Z,77.80
2023-02-18T05:58:10.067Z,77.70
2023-02-18T06:00:37.108Z,77.70
2023-02-18T06:03:04.044Z,77.70
2023-02-18T06:05:30.920Z,77.80
2023-02-18T06:07:57.642Z,77.70
2023-02-18T06:10:24.366Z,77.70
2023-02-18T06:12:51.069Z,77.50
2023-02-18T06:15:17.762Z,77.80
2023-02-18T06:17:44.563Z,78.00
2023-02-18T06:20:11.922Z,78.20
2023-02-18T06:22:38.699Z,78.10
2023-02-18T06:25:05.902Z,77.70
2023-02-18T06:27:32.666Z,77.90
2023-02-18T06:29:59.455Z,77.80
2023-02-18T06:32:26.338Z,77.60
2023-02-18T06:34:53.140Z,77.70
2023-02-18T06:37:19.887Z,77.60
2023-02-18T06:39:46.711Z,77.50
2023-02-18T06:42:13.519Z,77.60
2023-02-18T06:44:40.331Z,77.50
2023-02-18T06:47:07.409Z,77.40
2023-02-18T06:49:36.347Z,77.30
2023-02-18T06:52:03.227Z,77.40
2023-02-18T06:54:30.065Z,77.40
2023-02-18T06:56:56.877Z,77.30
2023-02-18T06:59:23.752Z,77.40
2023-02-18T07:01:50.509Z,77.20
2023-02-18T07:04:17.231Z,77.60
2023-02-18T07:06:43.901Z,77.40
2023-02-18T07:09:10.931Z,77.30
2023-02-18T07:11:38.126Z,77.60
2023-02-18T07:14:06.365Z,77.40
2023-02-18T07:16:34.174Z,77.50
2023-02-18T07:19:00.970Z,77.30
2023-02-18T07:21:27.858Z,77.60
2023-02-18T07:23:54.547Z,77.50
2023-02-18T07:26:21.281Z,77.50
2023-02-18T07:28:48.002Z,77.40
2023-02-18T07:31:15.514Z,77.30
2023-02-18T07:33:42.344Z,77.70
2023-02-18T07:36:09.937Z,77.70
2023-02-18T07:38:36.891Z,77.90
2023-02-18T07:41:03.738Z,77.50
2023-02-18T07:43:30.467Z,77.60
2023-02-18T07:45:57.210Z,77.50
2023-02-18T07:48:23.982Z,77.20
2023-02-18T07:50:50.708Z,77.30
2023-02-18T07:53:17.604Z,77.20
2023-02-18T07:55:50.191Z,77.20
2023-02-18T07:58:22.492Z,76.40
2023-02-18T08:00:49.977Z,76.30
2023-02-18T08:03:18.328Z,77.10
2023-02-18T08:05:45.461Z,77.10
2023-02-18T08:08:20.307Z,76.20
2023-02-18T08:10:47.884Z,78.30
2023-02-18T08:13:14.659Z,76.10
2023-02-18T08:15:41.549Z,75.50
2023-02-18T08:18:14.517Z,75.70
2023-02-18T08:20:41.339Z,76.60
2023-02-18T08:23:08.254Z,76.10
2023-02-18T08:25:34.966Z,75.80
2023-02-18T08:28:01.857Z,74.90
2023-02-18T08:30:28.840Z,74.90
2023-02-18T08:32:55.701Z,74.60
2023-02-18T08:35:22.568Z,74.60
2023-02-18T08:37:52.404Z,74.80
2023-02-18T08:40:21.748Z,74.70
2023-02-18T08:42:48.562Z,75.10
2023-02-18T08:45:15.402Z,74.70
2023-02-18T08:48:17.118Z,74.90
2023-02-18T08:50:28.939Z,74.90
2023-02-18T08:52:56.794Z,75.40
2023-02-18T08:55:25.049Z,76.20
2023-02-18T08:57:51.797Z,75.00
2023-02-18T09:00:20.431Z,75.10
2023-02-18T09:02:47.814Z,75.70
2023-02-18T09:05:15.038Z,75.00
2023-02-18T09:07:41.751Z,76.30
2023-02-18T09:10:09.807Z,74.90
2023-02-18T09:12:37.006Z,75.40
2023-02-18T09:15:04.941Z,75.40
2023-02-18T09:17:31.772Z,75.40
2023-02-18T09:19:58.558Z,74.70
2023-02-18T09:22:26.297Z,74.40
2023-02-18T09:24:52.998Z,75.60
2023-02-18T09:27:19.794Z,74.60
2023-02-18T09:29:46.544Z,75.20
2023-02-18T09:32:19.953Z,74.70
2023-02-18T09:34:52.305Z,74.70
2023-02-18T09:37:19.018Z,74.50
2023-02-18T09:39:45.795Z,74.70
2023-02-18T09:42:17.542Z,74.40
2023-02-18T09:44:47.814Z,75.80
2023-02-18T09:47:20.246Z,74.20
2023-02-18T09:49:56.651Z,75.90
2023-02-18T09:52:28.986Z,76.40
2023-02-18T09:54:55.988Z,75.60
2023-02-18T09:57:43.774Z,74.50
2023-02-18T10:00:16.200Z,76.10
2023-02-18T10:02:55.342Z,75.30
2023-02-18T10:05:24.588Z,75.50
2023-02-18T10:07:55.894Z,74.90
2023-02-18T10:10:40.488Z,74.40
2023-02-18T10:13:16.406Z,74.60
2023-02-18T10:15:44.454Z,74.30
2023-02-18T10:18:35.517Z,73.30
2023-02-18T10:21:24.904Z,74.20
2023-02-18T10:24:16.419Z,74.60
2023-02-18T10:26:43.931Z,74.10
2023-02-18T10:29:18.692Z,72.20
2023-02-18T10:31:59.616Z,73.60
2023-02-18T10:34:49.640Z,73.70
2023-02-18T10:37:31.601Z,73.20
2023-02-18T10:40:29.039Z,74.00
2023-02-18T10:43:07.597Z,73.10
2023-02-18T10:45:55.526Z,70.50
2023-02-18T10:48:34.779Z,72.30
2023-02-18T10:51:11.792Z,72.70
2023-02-18T10:53:42.268Z,72.00
2023-02-18T10:56:09.329Z,71.90
2023-02-18T10:58:42.917Z,70.00
2023-02-18T11:01:19.715Z,69.30
2023-02-18T11:03:49.049Z,71.80
2023-02-18T11:06:53.072Z,70.80
2023-02-18T11:09:31.933Z,69.80
2023-02-18T11:12:16.618Z,71.20
2023-02-18T11:14:46.754Z,71.30
2023-02-18T11:17:32.105Z,70.40
2023-02-18T11:20:01.780Z,70.90
2023-02-18T11:22:34.989Z,69.30
2023-02-18T11:25:04.458Z,69.00
2023-02-18T11:27:43.442Z,69.10
2023-02-18T11:30:36.934Z,68.90
2023-02-18T11:33:09.543Z,69.70
2023-02-18T11:35:37.731Z,69.90
2023-02-18T11:38:22.991Z,68.60
2023-02-18T11:41:00.294Z,70.70
2023-02-18T11:43:30.838Z,70.80
2023-02-18T11:46:12.975Z,70.80
2023-02-18T11:48:39.970Z,72.10
2023-02-18T11:51:15.137Z,70.60
2023-02-18T11:53:53.607Z,71.20
2023-02-18T11:56:20.555Z,72.60
2023-02-18T11:58:48.678Z,70.60
2023-02-18T12:02:06.700Z,71.40
2023-02-18T12:04:46.951Z,72.00
2023-02-18T12:07:28.537Z,72.10
2023-02-18T12:10:04.066Z,70.00
2023-02-18T12:12:41.005Z,71.20
2023-02-18T12:15:13.925Z,72.20
2023-02-18T12:18:17.790Z,71.80
2023-02-18T12:20:44.678Z,72.10
2023-02-18T12:23:33.570Z,70.00
2023-02-18T12:26:24.385Z,71.90
2023-02-18T12:29:15.754Z,71.80
2023-02-18T12:31:59.135Z,71.70
2023-02-18T12:34:45.181Z,71.90
2023-02-18T12:37:44.480Z,71.40
2023-02-18T12:40:39.557Z,71.60
2023-02-18T12:43:09.301Z,71.30
2023-02-18T12:45:42.173Z,70.80
2023-02-18T12:48:39.169Z,68.70
2023-02-18T12:51:11.000Z,70.60
2023-02-18T12:53:57.802Z,68.70
2023-02-18T12:56:39.477Z,70.30
2023-02-18T12:59:19.862Z,69.80
2023-02-18T13:02:14.032Z,70.30
2023-02-18T13:04:43.714Z,69.40
2023-02-18T13:07:44.091Z,67.20
2023-02-18T13:10:21.017Z,69.30
2023-02-18T13:13:01.251Z,67.60
2023-02-18T13:15:37.007Z,68.60
2023-02-18T13:18:09.095Z,67.10
2023-02-18T13:20:54.043Z,69.40
2023-02-18T13:23:27.868Z,70.00
2023-02-18T13:26:01.203Z,69.80
2023-02-18T13:29:15.042Z,69.80
2023-02-18T13:32:07.916Z,70.20
2023-02-18T13:34:50.600Z,70.00
2023-02-18T13:37:39.311Z,70.70
2023-02-18T13:40:21.564Z,70.20
2023-02-18T13:42:52.586Z,69.90
2023-02-18T13:45:31.426Z,69.70
2023-02-18T13:47:59.671Z,69.50
2023-02-18T13:50:46.712Z,68.70
2023-02-18T13:53:21.119Z,69.80
2023-02-18T13:56:20.597Z,69.10
2023-02-18T13:58:55.958Z,69.50
2023-02-18T14:01:44.082Z,69.20
2023-02-18T14:04:42.243Z,69.30
2023-02-18T14:07:39.119Z,69.80
2023-02-18T14:10:20.917Z,69.60
2023-02-18T14:12:56.713Z,69.10
2023-02-18T14:15:23.603Z,69.20
2023-02-18T14:18:08.989Z,66.50
2023-02-18T14:20:38.783Z,66.10
2023-02-18T14:23:33.112Z,68.10
2023-02-18T14:26:14.004Z,68.30
2023-02-18T14:28:48.781Z,67.40
2023-02-18T14:31:15.594Z,67.50
2023-02-18T14:34:19.665Z,66.20
2023-02-18T14:37:09.398Z,67.80
2023-02-18T14:40:00.354Z,67.60
2023-02-18T14:42:45.309Z,67.70
2023-02-18T14:45:21.077Z,67.00
2023-02-18T14:47:50.881Z,65.10
2023-02-18T14:50:19.885Z,67.40
2023-02-18T14:52:59.208Z,66.40
2023-02-18T14:55:30.714Z,67.20
2023-02-18T14:58:07.887Z,67.00
2023-02-18T15:00:42.176Z,67.00
2023-02-18T15:03:19.226Z,67.10
2023-02-18T15:05:47.149Z,67.20
2023-02-18T15:08:25.340Z,66.90
2023-02-18T15:11:06.136Z,68.50
2023-02-18T15:13:36.711Z,68.30
2023-02-18T15:16:07.403Z,68.00
2023-02-18T15:18:37.928Z,67.60
2023-02-18T15:21:08.023Z,67.80
2023-02-18T15:23:40.695Z,68.00
2023-02-18T15:26:13.248Z,68.70
2023-02-18T15:28:51.535Z,67.70
2023-02-18T15:31:18.326Z,68.50
2023-02-18T15:33:48.084Z,67.00
2023-02-18T15:36:15.472Z,68.50
2023-02-18T15:38:43.868Z,67.50
2023-02-18T15:41:14.166Z,67.00
2023-02-18T15:43:53.650Z,68.10
2023-02-18T15:46:22.643Z,69.80
2023-02-18T15:48:53.292Z,67.80
2023-02-18T15:51:31.465Z,68.20
2023-02-18T15:54:04.451Z,69.30
2023-02-18T15:56:38.230Z,69.00
2023-02-18T15:59:17.590Z,68.80
2023-02-18T16:01:52.313Z,69.20
2023-02-18T16:04:21.360Z,68.40
2023-02-18T16:06:54.628Z,68.50
2023-02-18T16:09:36.488Z,69.10
2023-02-18T16:12:05.759Z,69.60
2023-02-18T16:14:49.804Z,68.80
2023-02-18T16:17:23.230Z,70.40
2023-02-18T16:20:08.064Z,68.70
2023-02-18T16:22:42.694Z,69.10
2023-02-18T16:25:18.414Z,69.10
2023-02-18T16:27:59.164Z,70.10
2023-02-18T16:30:28.887Z,69.90
2023-02-18T16:32:57.832Z,69.60
2023-02-18T16:35:27.872Z,69.30
2023-02-18T16:37:59.655Z,70.20
2023-02-18T16:40:29.251Z,69.40
2023-02-18T16:42:58.692Z,68.20
2023-02-18T16:45:35.629Z,69.70
2023-02-18T16:48:02.793Z,70.70
2023-02-18T16:50:31.887Z,68.80
2023-02-18T16:52:59.406Z,70.00
2023-02-18T16:55:28.864Z,69.10
2023-02-18T16:57:56.197Z,70.30
2023-02-18T17:00:23.822Z,69.70
2023-02-18T17:02:53.568Z,69.60
2023-02-18T17:05:27.291Z,70.40
2023-02-18T17:07:56.229Z,71.00
2023-02-18T17:10:23.121Z,70.00
2023-02-18T17:12:49.845Z,69.20
2023-02-18T17:15:33.997Z,70.00
2023-02-18T17:18:01.722Z,71.30
2023-02-18T17:20:30.790Z,70.80
2023-02-18T17:22:58.465Z,70.30
2023-02-18T17:25:30.514Z,69.70
2023-02-18T17:27:57.801Z,71.90
2023-02-18T17:30:24.869Z,70.50
2023-02-18T17:32:51.760Z,70.30
2023-02-18T17:35:21.777Z,70.10
2023-02-18T17:37:49.245Z,71.60
2023-02-18T17:40:25.584Z,71.60
2023-02-18T17:42:54.525Z,72.10
2023-02-18T17:45:29.155Z,71.40
2023-02-18T17:47:56.995Z,69.50
2023-02-18T17:50:24.340Z,71.30
2023-02-18T17:52:51.584Z,70.60
2023-02-18T17:55:28.039Z,70.30
2023-02-18T17:57:55.505Z,71.30
2023-02-18T18:00:31.691Z,71.00
2023-02-18T18:02:59.416Z,72.10
2023-02-18T18:05:28.611Z,71.50
2023-02-18T18:07:55.508Z,72.10
2023-02-18T18:10:28.519Z,71.60
2023-02-18T18:12:55.318Z,72.50
2023-02-18T18:15:34.190Z,71.20
2023-02-18T18:18:01.110Z,71.90
2023-02-18T18:20:30.695Z,71.00
2023-02-18T18:22:59.163Z,72.10
2023-02-18T18:25:30.756Z,72.10
2023-02-18T18:27:57.876Z,72.90
2023-02-18T18:30:27.444Z,72.30
2023-02-18T18:32:54.390Z,73.40
2023-02-18T18:35:27.007Z,72.60
2023-02-18T18:37:54.740Z,72.10
2023-02-18T18:40:25.272Z,73.40
2023-02-18T18:42:52.743Z,73.90
2023-02-18T18:45:25.933Z,73.10
2023-02-18T18:47:53.340Z,75.30
2023-02-18T18:50:21.269Z,74.00
2023-02-18T18:52:49.436Z,74.10
2023-02-18T18:55:32.290Z,74.40
2023-02-18T18:57:59.922Z,74.90
2023-02-18T19:00:30.264Z,74.30
2023-02-18T19:02:57.568Z,75.20
2023-02-18T19:05:29.362Z,74.20
2023-02-18T19:07:56.721Z,74.70
2023-02-18T19:10:25.919Z,74.40
2023-02-18T19:12:52.706Z,74.20
2023-02-18T19:15:22.136Z,73.30
2023-02-18T19:17:51.848Z,74.70
2023-02-18T19:20:24.418Z,74.50
2023-02-18T19:22:51.580Z,75.00
2023-02-18T19:25:19.242Z,73.60
2023-02-18T19:27:47.528Z,74.40
2023-02-18T19:30:22.764Z,74.60
2023-02-18T19:32:51.559Z,75.40
2023-02-18T19:35:18.792Z,74.70
2023-02-18T19:37:45.796Z,73.70
2023-02-18T19:40:15.000Z,73.90
2023-02-18T19:42:42.574Z,74.90
2023-02-18T19:45:10.132Z,74.10
2023-02-18T19:47:36.948Z,74.20
2023-02-18T19:50:05.047Z,73.70
2023-02-18T19:52:31.958Z,74.50
2023-02-18T19:54:58.845Z,74.00
2023-02-18T19:57:25.664Z,74.00
2023-02-18T19:59:52.740Z,74.00
2023-02-18T20:02:24.741Z,73.80
2023-02-18T20:04:52.046Z,75.70
2023-02-18T20:07:21.227Z,74.50
2023-02-18T20:09:50.847Z,75.40
2023-02-18T20:12:17.573Z,74.20
2023-02-18T20:14:44.550Z,74.20
2023-02-18T20:17:11.572Z,74.20
2023-02-18T20:19:38.473Z,74.80
2023-02-18T20:22:06.822Z,74.40
2023-02-18T20:24:34.390Z,74.70
2023-02-18T20:27:02.846Z,74.60
2023-02-18T20:29:30.754Z,74.70
2023-02-18T20:31:57.531Z,74.80
2023-02-18T20:34:24.418Z,74.50
2023-02-18T20:36:52.166Z,74.50
2023-02-18T20:39:20.170Z,76.20
2023-02-18T20:41:48.775Z,75.30
2023-02-18T20:44:17.062Z,76.00
2023-02-18T20:46:44.943Z,75.50
2023-02-18T20:49:17.365Z,76.00
2023-02-18T20:51:44.588Z,76.80
2023-02-18T20:54:19.385Z,76.00
2023-02-18T20:56:49.482Z,77.00
2023-02-18T20:59:18.867Z,76.50
2023-02-18T21:01:46.727Z,76.70
2023-02-18T21:04:19.096Z,75.90
2023-02-18T21:06:47.114Z,77.20
2023-02-18T21:09:15.719Z,76.00
2023-02-18T21:11:43.226Z,76.30
2023-02-18T21:14:10.785Z,75.70
2023-02-18T21:16:41.044Z,75.70
2023-02-18T21:19:11.849Z,75.90
2023-02-18T21:21:38.701Z,76.10
2023-02-18T21:24:05.945Z,75.10
2023-02-18T21:26:32.891Z,75.10
2023-02-18T21:29:02.134Z,75.00
2023-02-18T21:31:48.966Z,76.10
2023-02-18T21:34:16.160Z,75.70
2023-02-18T21:36:43.207Z,75.50
2023-02-18T21:39:11.373Z,76.10
2023-02-18T21:41:40.702Z,75.90
2023-02-18T21:44:08.930Z,75.70
2023-02-18T21:46:36.718Z,75.60
2023-02-18T21:49:12.467Z,75.40
2023-02-18T21:51:56.708Z,76.10
2023-02-18T21:54:30.888Z,76.90
2023-02-18T21:56:59.223Z,74.60
2023-02-18T21:59:27.911Z,75.80
2023-02-18T22:01:56.343Z,76.00
2023-02-18T22:04:23.654Z,75.70
2023-02-18T22:06:50.402Z,75.70
2023-02-18T22:09:17.189Z,75.00
2023-02-18T22:11:44.332Z,75.20
2023-02-18T22:14:12.461Z,75.00
2023-02-18T22:16:39.763Z,76.10
2023-02-18T22:19:07.356Z,75.30
2023-02-18T22:21:34.506Z,75.80
2023-02-18T22:24:01.404Z,76.10
2023-02-18T22:26:28.171Z,75.20
2023-02-18T22:28:57.357Z,75.20
2023-02-18T22:31:27.150Z,76.00
2023-02-18T22:33:55.085Z,76.30
2023-02-18T22:36:23.637Z,75.70
2023-02-18T22:38:50.708Z,76.10
2023-02-18T22:41:20.036Z,75.10
2023-02-18T22:43:47.218Z,76.60
2023-02-18T22:46:18.172Z,75.70
2023-02-18T22:48:45.027Z,77.00
2023-02-18T22:51:14.843Z,75.20
2023-02-18T22:53:42.910Z,76.40
2023-02-18T22:56:13.422Z,76.00
2023-02-18T22:58:41.086Z,76.60
2023-02-18T23:01:17.831Z,75.80
2023-02-18T23:03:44.649Z,76.00
2023-02-18T23:06:11.394Z,75.00
2023-02-18T23:08:38.183Z,75.90
2023-02-18T23:11:11.943Z,75.50
2023-02-18T23:13:39.052Z,77.50
2023-02-18T23:16:09.400Z,76.00
2023-02-18T23:18:36.522Z,77.10
2023-02-18T23:21:20.740Z,76.00
2023-02-18T23:23:53.279Z,77.50
2023-02-18T23:26:25.495Z,76.90
2023-02-18T23:28:53.327Z,77.40
2023-02-18T23:31:25.410Z,76.50
2023-02-18T23:33:57.286Z,76.40
2023-02-18T23:36:30.330Z,77.40
2023-02-18T23:38:59.422Z,77.60
2023-02-18T23:41:27.565Z,76.90
2023-02-18T23:43:54.707Z,76.50
2023-02-18T23:46:23.741Z,76.20
2023-02-18T23:48:50.668Z,77.50
2023-02-18T23:51:22.129Z,76.30
2023-02-18T23:53:49.636Z,77.70
2023-02-18T23:56:24.934Z,76.40
2023-02-18T23:58:57.423Z,78.10
